createdAt,value
2023-05-02T00:01:06.552Z,10.2
2023-05-02T00:02:07.036Z,10.2
2023-05-02T00:03:06.469Z,10.2
2023-05-02T00:04:06.808Z,10.3
2023-05-02T00:05:06.751Z,10.2
2023-05-02T00:06:06.978Z,10.2
2023-05-02T00:07:06.152Z,10.3
2023-05-02T00:08:06.499Z,10.2
2023-05-02T00:09:06.708Z,10.2
2023-05-02T00:10:07.092Z,10
2023-05-02T00:11:06.209Z,10
2023-05-02T00:12:06.337Z,10.2
2023-05-02T00:13:06.753Z,10.2
2023-05-02T00:14:06.861Z,10
2023-05-02T00:15:05.990Z,10
2023-05-02T00:16:06.509Z,10.2
2023-05-02T00:17:06.731Z,10.2
2023-05-02T00:18:07.196Z,10.1
2023-05-02T00:19:06.193Z,10.1
2023-05-02T00:20:06.899Z,10.1
2023-05-02T00:21:06.609Z,10.1
2023-05-02T00:22:06.960Z,10.1
2023-05-02T00:28:06.106Z,10
2023-05-02T00:29:06.323Z,9
2023-05-02T00:30:06.954Z,10
2023-05-02T00:31:06.836Z,10
2023-05-02T00:33:06.576Z,10
2023-05-02T00:34:06.593Z,10
2023-05-02T00:35:06.797Z,10
2023-05-02T00:36:05.673Z,9.9
2023-05-02T00:37:06.441Z,9
2023-05-02T00:38:06.395Z,9.9
2023-05-02T00:39:06.808Z,9.9
2023-05-02T00:43:06.701Z,9.8
2023-05-02T00:44:06.189Z,9.8
2023-05-02T00:45:07.056Z,9.8
2023-05-02T00:46:06.532Z,9.8
2023-05-02T00:47:07.046Z,9.8
2023-05-02T00:48:06.260Z,9.8
2023-05-02T00:49:06.352Z,9.8
2023-05-02T00:50:07.244Z,9.8
2023-05-02T00:51:06.924Z,9.8
2023-05-02T00:53:06.395Z,9.8
2023-05-02T00:54:06.751Z,9.8
2023-05-02T00:55:07.095Z,9.8
2023-05-02T00:56:06.388Z,9.8
2023-05-02T00:57:06.671Z,9.8
2023-05-02T00:58:06.948Z,9.8
2023-05-02T00:59:06.011Z,9.8
2023-05-02T01:00:06.916Z,9.8
2023-05-02T01:03:06.750Z,9.8
2023-05-02T01:04:07.232Z,9.7
2023-05-02T01:05:06.867Z,9.8
2023-05-02T01:06:07.106Z,9.7
2023-05-02T01:07:06.115Z,9.8
2023-05-02T01:08:06.257Z,9.7
2023-05-02T01:09:06.672Z,9.7
2023-05-02T01:10:06.546Z,9.7
2023-05-02T01:11:06.138Z,9.7
2023-05-02T01:12:06.461Z,9.7
2023-05-02T01:13:06.664Z,9.7
2023-05-02T01:17:06.787Z,9.7
2023-05-02T01:18:05.964Z,9.7
2023-05-02T01:19:06.367Z,9.7
2023-05-02T01:20:06.964Z,9.7
2023-05-02T01:21:06.650Z,9.7
2023-05-02T01:23:06.329Z,9.7
2023-05-02T01:24:06.636Z,9.7
2023-05-02T01:25:06.419Z,9.7
2023-05-02T01:26:06.702Z,9.7
2023-05-02T01:27:06.803Z,9.7
2023-05-02T01:28:06.214Z,9.7
2023-05-02T01:31:06.900Z,9.7
2023-05-02T01:33:06.704Z,9.7
2023-05-02T01:34:06.824Z,9.7
2023-05-02T01:35:06.105Z,9.6
2023-05-02T01:36:06.362Z,9.6
2023-05-02T01:37:06.426Z,9.6
2023-05-02T01:38:06.633Z,9.6
2023-05-02T01:39:06.776Z,9.6
2023-05-02T01:40:06.129Z,9.6
2023-05-02T01:41:06.280Z,9.6
2023-05-02T01:42:06.540Z,9.6
2023-05-02T01:43:06.745Z,9.6
2023-05-02T01:44:06.212Z,9.6
2023-05-02T01:45:06.229Z,9.6
2023-05-02T01:46:06.567Z,9.6
2023-05-02T01:47:06.760Z,9.6
2023-05-02T01:48:06.258Z,9.6
2023-05-02T01:49:06.356Z,9.6
2023-05-02T01:50:06.893Z,9.6
2023-05-02T01:51:06.786Z,9.6
2023-05-02T01:53:06.771Z,9.6
2023-05-02T01:54:06.064Z,9.6
2023-05-02T01:55:06.457Z,9.6
2023-05-02T01:56:06.657Z,9.6
2023-05-02T01:57:06.936Z,9.7
2023-05-02T01:58:06.100Z,9.7
2023-05-02T01:59:06.411Z,9.7
2023-05-02T02:00:06.744Z,9.7
2023-05-02T02:01:06.733Z,9.7
2023-05-02T02:05:06.656Z,9.7
2023-05-02T02:07:06.133Z,9.7
2023-05-02T02:08:06.653Z,9.7
2023-05-02T02:09:06.755Z,9.7
2023-05-02T02:10:06.994Z,9.7
2023-05-02T02:11:06.287Z,9.8
2023-05-02T02:12:06.301Z,9
2023-05-02T02:13:06.907Z,9
2023-05-02T02:14:05.990Z,9.8
2023-05-02T02:15:06.088Z,9.7
2023-05-02T02:16:06.435Z,9.8
2023-05-02T02:17:07.191Z,9.8
2023-05-02T02:18:06.195Z,9.8
2023-05-02T02:19:06.245Z,9.8
2023-05-02T02:20:06.796Z,9.8
2023-05-02T02:21:06.123Z,9.8
2023-05-02T02:22:06.494Z,9
2023-05-02T02:23:06.789Z,9
2023-05-02T02:24:06.299Z,9.8
2023-05-02T02:25:06.525Z,9.8
2023-05-02T02:26:06.222Z,9.7
2023-05-02T02:27:06.559Z,9.7
2023-05-02T02:28:05.965Z,9.8
2023-05-02T02:29:06.392Z,9.8
2023-05-02T02:30:06.983Z,9.8
2023-05-02T02:31:06.961Z,9.8
2023-05-02T02:32:07.103Z,9.8
2023-05-02T02:35:06.828Z,9.8
2023-05-02T02:36:06.878Z,9.8
2023-05-02T02:37:06.059Z,9.8
2023-05-02T02:38:06.323Z,9.8
2023-05-02T02:39:06.604Z,9.8
2023-05-02T02:40:07.204Z,9.8
2023-05-02T02:41:06.852Z,9.8
2023-05-02T02:43:06.272Z,9.8
2023-05-02T02:44:06.681Z,9.8
2023-05-02T02:45:06.900Z,9.8
2023-05-02T02:46:06.306Z,9.8
2023-05-02T02:47:06.397Z,9.8
2023-05-02T02:48:06.811Z,9.8
2023-05-02T02:49:06.919Z,9
2023-05-02T02:50:06.087Z,9
2023-05-02T02:51:06.252Z,9.8
2023-05-02T02:52:06.634Z,9.8
2023-05-02T02:53:06.862Z,9.8
2023-05-02T02:54:26.286Z,9.8
2023-05-02T02:56:06.418Z,9.8
2023-05-02T02:57:05.520Z,9.8
2023-05-02T02:58:06.746Z,9.8
2023-05-02T02:59:05.911Z,9.8
2023-05-02T03:00:06.714Z,9.8
2023-05-02T03:02:06.935Z,9.8
2023-05-02T03:03:06.221Z,9.8
2023-05-02T03:04:06.727Z,9.8
2023-05-02T03:05:06.929Z,9.8
2023-05-02T03:06:06.645Z,9.8
2023-05-02T03:07:06.492Z,9.8
2023-05-02T03:08:06.868Z,9.8
2023-05-02T03:09:05.876Z,9.7
2023-05-02T03:10:06.309Z,9.8
2023-05-02T03:11:06.250Z,9.7
2023-05-02T03:12:06.401Z,9.7
2023-05-02T03:13:06.780Z,9.7
2023-05-02T03:14:07.022Z,9.7
2023-05-02T03:18:06.319Z,9.7
2023-05-02T03:19:06.417Z,9
2023-05-02T03:20:06.907Z,9.7
2023-05-02T03:21:06.083Z,9.7
2023-05-02T03:22:06.454Z,9
2023-05-02T03:23:06.765Z,9.6
2023-05-02T03:24:06.264Z,9.7
2023-05-02T03:25:06.756Z,9.6
2023-05-02T03:26:06.151Z,9.6
2023-05-02T03:27:06.715Z,9.6
2023-05-02T03:28:07.022Z,9.6
2023-05-02T03:29:05.982Z,9.6
2023-05-02T03:30:06.508Z,9
2023-05-02T03:31:06.948Z,9
2023-05-02T03:32:06.402Z,9.6
2023-05-02T03:33:06.607Z,9.5
2023-05-02T03:34:06.602Z,9
2023-05-02T03:35:06.969Z,9.5
2023-05-02T03:36:06.036Z,9.5
2023-05-02T03:37:06.293Z,9.5
2023-05-02T03:38:06.866Z,9.5
2023-05-02T03:39:06.044Z,9.5
2023-05-02T03:40:06.342Z,9.5
2023-05-02T03:41:06.351Z,9
2023-05-02T03:42:06.825Z,9.5
2023-05-02T03:43:06.077Z,9.4
2023-05-02T03:44:06.383Z,9.4
2023-05-02T03:45:06.669Z,9.4
2023-05-02T03:46:06.504Z,9.4
2023-05-02T03:47:06.925Z,9.4
2023-05-02T03:48:06.190Z,9.4
2023-05-02T03:49:06.262Z,9.4
2023-05-02T03:50:05.515Z,9.4
2023-05-02T03:51:06.814Z,9.4
2023-05-02T03:52:06.138Z,9.4
2023-05-02T03:53:05.239Z,9.3
2023-05-02T03:54:06.792Z,9.4
2023-05-02T03:58:06.281Z,9.4
2023-05-02T03:59:06.218Z,9.4
2023-05-02T04:00:07.039Z,9.4
2023-05-02T04:01:06.421Z,9.3
2023-05-02T04:02:07.019Z,9.3
2023-05-02T04:03:06.121Z,9.3
2023-05-02T04:04:06.463Z,9.4
2023-05-02T04:05:06.631Z,9.4
2023-05-02T04:06:07.060Z,9
2023-05-02T04:07:06.102Z,9
2023-05-02T04:08:06.531Z,9.3
2023-05-02T04:09:06.693Z,9.4
2023-05-02T04:10:07.264Z,9.4
2023-05-02T04:11:06.148Z,9.4
2023-05-02T04:12:06.348Z,9.4
2023-05-02T04:13:06.458Z,9.4
2023-05-02T04:14:07.006Z,9.4
2023-05-02T04:15:06.129Z,9
2023-05-02T04:16:06.414Z,9
2023-05-02T04:17:06.866Z,9.4
2023-05-02T04:18:06.060Z,9.4
2023-05-02T04:19:06.101Z,9.4
2023-05-02T04:20:10.073Z,9.4
2023-05-02T04:23:06.226Z,9.3
2023-05-02T04:24:06.707Z,9.3
2023-05-02T04:25:07.062Z,9.3
2023-05-02T04:26:06.210Z,9.3
2023-05-02T04:27:06.654Z,9.3
2023-05-02T04:28:06.013Z,9.3
2023-05-02T04:29:06.365Z,9.3
2023-05-02T04:30:07.261Z,9.4
2023-05-02T04:31:06.160Z,9.4
2023-05-02T04:32:06.018Z,9.4
2023-05-02T04:33:06.352Z,9.4
2023-05-02T04:34:06.661Z,9.4
2023-05-02T04:35:07.031Z,9.4
2023-05-02T04:40:06.149Z,9.4
2023-05-02T04:41:14.036Z,9.5
2023-05-02T04:43:05.688Z,9.5
2023-05-02T04:44:06.391Z,9.5
2023-05-02T04:45:06.642Z,9.6
2023-05-02T04:46:05.404Z,9.6
2023-05-02T04:47:06.687Z,9.5
2023-05-02T04:48:06.338Z,9.5
2023-05-02T04:49:05.334Z,9.6
2023-05-02T04:50:07.068Z,9.6
2023-05-02T04:53:06.417Z,9.6
2023-05-02T04:54:06.529Z,9
2023-05-02T04:55:07.038Z,9.6
2023-05-02T04:56:05.964Z,9.6
2023-05-02T04:57:06.212Z,9.7
2023-05-02T04:58:06.599Z,9.7
2023-05-02T04:59:06.673Z,9.7
2023-05-02T05:00:06.981Z,9.7
2023-05-02T05:01:06.205Z,9.7
2023-05-02T05:02:06.555Z,9.8
2023-05-02T05:03:06.950Z,9.8
2023-05-02T05:06:07.092Z,9.8
2023-05-02T05:07:06.842Z,9.8
2023-05-02T05:09:06.467Z,9.9
2023-05-02T05:10:07.269Z,9.9
2023-05-02T05:11:05.978Z,9.9
2023-05-02T05:12:06.286Z,9.9
2023-05-02T05:13:06.443Z,9.9
2023-05-02T05:14:06.556Z,10
2023-05-02T05:15:06.552Z,9.9
2023-05-02T05:16:06.102Z,9.9
2023-05-02T05:17:06.494Z,9.9
2023-05-02T05:18:07.056Z,10
2023-05-02T05:21:06.568Z,10
2023-05-02T05:22:06.901Z,10
2023-05-02T05:23:06.294Z,10
2023-05-02T05:24:06.327Z,10
2023-05-02T05:25:06.963Z,10
2023-05-02T05:26:06.569Z,10
2023-05-02T05:27:06.749Z,9
2023-05-02T05:28:06.071Z,10
2023-05-02T05:29:06.459Z,10
2023-05-02T05:30:07.249Z,10
2023-05-02T05:31:06.620Z,10.1
2023-05-02T05:32:07.117Z,10.1
2023-05-02T05:33:06.383Z,10.1
2023-05-02T05:34:06.963Z,10.1
2023-05-02T05:35:07.158Z,10.1
2023-05-02T05:36:06.858Z,10.1
2023-05-02T05:37:06.032Z,10.1
2023-05-02T05:38:06.314Z,10.1
2023-05-02T05:41:06.968Z,10.2
2023-05-02T05:43:06.257Z,10.2
2023-05-02T05:44:06.406Z,10.2
2023-05-02T05:45:06.143Z,10.3
2023-05-02T05:46:06.068Z,10.3
2023-05-02T05:47:06.403Z,10.4
2023-05-02T05:48:06.887Z,10.4
2023-05-02T05:49:07.073Z,10.3
2023-05-02T05:50:06.281Z,10.4
2023-05-02T05:55:06.139Z,10.6
2023-05-02T05:56:06.407Z,10.6
2023-05-02T05:57:06.807Z,10.6
2023-05-02T05:58:06.252Z,10.6
2023-05-02T05:59:06.514Z,10.7
2023-05-02T06:00:07.339Z,10.7
2023-05-02T06:01:06.073Z,10.8
2023-05-02T06:02:06.552Z,10.7
2023-05-02T06:03:09.976Z,10.8
2023-05-02T06:05:06.914Z,11
2023-05-02T06:06:06.594Z,11.2
2023-05-02T06:07:06.670Z,10
2023-05-02T06:08:06.889Z,11.2
2023-05-02T06:09:06.111Z,11.3
2023-05-02T06:10:06.997Z,11.2
2023-05-02T06:11:06.550Z,11.2
2023-05-02T06:12:06.767Z,11.3
2023-05-02T06:13:07.153Z,11.2
2023-05-02T06:17:05.862Z,11.3
2023-05-02T06:18:06.430Z,11.2
2023-05-02T06:19:06.519Z,11.2
2023-05-02T06:20:05.848Z,10
2023-05-02T06:21:06.780Z,11.2
2023-05-02T06:22:06.021Z,11.2
2023-05-02T06:23:06.406Z,11.2
2023-05-02T06:24:06.568Z,11.2
2023-05-02T06:25:06.909Z,11.3
2023-05-02T06:26:06.866Z,11.2
2023-05-02T06:27:06.212Z,11.3
2023-05-02T06:28:06.357Z,11.4
2023-05-02T06:29:07.212Z,11.4
2023-05-02T06:30:06.510Z,11.4
2023-05-02T06:31:06.890Z,11.4
2023-05-02T06:32:06.979Z,11.4
2023-05-02T06:34:06.282Z,11.4
2023-05-02T06:35:06.659Z,10
2023-05-02T06:36:06.473Z,11.6
2023-05-02T06:37:06.841Z,11.7
2023-05-02T06:38:06.259Z,11.7
2023-05-02T06:39:06.413Z,11.8
2023-05-02T06:40:07.192Z,11.9
2023-05-02T06:41:07.099Z,11.9
2023-05-02T06:45:06.015Z,11.8
2023-05-02T06:46:06.325Z,11.8
2023-05-02T06:47:06.944Z,11.8
2023-05-02T06:48:07.039Z,11.7
2023-05-02T06:49:05.954Z,11.7
2023-05-02T06:50:06.753Z,11.7
2023-05-02T06:51:06.915Z,11.7
2023-05-02T06:52:05.961Z,11.7
2023-05-02T06:53:06.447Z,11.7
2023-05-02T06:54:06.525Z,11.7
2023-05-02T06:55:07.059Z,10
2023-05-02T06:56:06.033Z,11.7
2023-05-02T06:57:06.501Z,11.7
2023-05-02T06:58:06.836Z,11.8
2023-05-02T06:59:06.898Z,11.8
2023-05-02T07:00:07.014Z,11.9
2023-05-02T07:01:06.706Z,11.9
2023-05-02T07:02:09.726Z,12
2023-05-02T07:06:06.838Z,12.2
2023-05-02T07:08:06.384Z,12.3
2023-05-02T07:09:06.827Z,12.3
2023-05-02T07:10:06.044Z,12.3
2023-05-02T07:11:06.064Z,12.4
2023-05-02T07:12:09.298Z,12.4
2023-05-02T07:15:06.109Z,12.4
2023-05-02T07:16:05.555Z,12.4
2023-05-02T07:17:07.055Z,12.4
2023-05-02T07:18:06.129Z,12.4
2023-05-02T07:19:06.245Z,12.4
2023-05-02T07:20:07.407Z,12.4
2023-05-02T07:21:06.771Z,12.4
2023-05-02T07:24:06.073Z,12.4
2023-05-02T07:25:06.264Z,12.5
2023-05-02T07:26:08.758Z,12.4
2023-05-02T07:27:06.741Z,12.5
2023-05-02T07:28:07.059Z,12.5
2023-05-02T07:31:06.087Z,12.6
2023-05-02T07:32:06.343Z,12.6
2023-05-02T07:33:06.726Z,12.6
2023-05-02T07:34:06.528Z,12.6
2023-05-02T07:35:06.985Z,12.6
2023-05-02T07:36:05.978Z,12.7
2023-05-02T07:37:06.422Z,12.7
2023-05-02T07:38:06.602Z,12.7
2023-05-02T07:39:06.779Z,12.8
2023-05-02T07:40:06.732Z,12.8
2023-05-02T07:43:06.312Z,12.9
2023-05-02T07:44:06.496Z,13
2023-05-02T07:45:07.001Z,13
2023-05-02T07:46:06.025Z,12.9
2023-05-02T07:47:06.196Z,12.9
2023-05-02T07:48:05.749Z,12.9
2023-05-02T07:49:06.752Z,12.9
2023-05-02T07:50:07.023Z,12.9
2023-05-02T07:51:06.241Z,12.9
2023-05-02T07:52:06.469Z,12.9
2023-05-02T07:53:06.727Z,12.8
2023-05-02T07:54:06.732Z,12
2023-05-02T07:56:06.256Z,12.9
2023-05-02T07:57:06.640Z,12.9
2023-05-02T07:58:06.647Z,13
2023-05-02T07:59:08.533Z,12.9
2023-05-02T08:00:06.465Z,12.9
2023-05-02T08:01:06.558Z,12.9
2023-05-02T08:02:06.682Z,12.9
2023-05-02T08:03:07.282Z,12.9
2023-05-02T08:04:06.919Z,12.9
2023-05-02T08:05:06.508Z,12.8
2023-05-02T08:06:06.977Z,12.9
2023-05-02T08:11:06.784Z,12.9
2023-05-02T08:12:06.142Z,12.8
2023-05-02T08:13:06.481Z,12.8
2023-05-02T08:14:06.579Z,12.9
2023-05-02T08:15:06.925Z,12.9
2023-05-02T08:16:06.060Z,12.9
2023-05-02T08:17:06.279Z,12.9
2023-05-02T08:18:07.045Z,12.9
2023-05-02T08:19:06.832Z,13
2023-05-02T08:20:06.846Z,13
2023-05-02T08:21:06.327Z,13
2023-05-02T08:22:06.572Z,13
2023-05-02T08:23:07.009Z,13
2023-05-02T08:24:06.022Z,13.1
2023-05-02T08:25:06.349Z,13.1
2023-05-02T08:26:06.555Z,13.1
2023-05-02T08:27:06.687Z,13.2
2023-05-02T08:28:07.033Z,13.2
2023-05-02T08:29:06.147Z,13.3
2023-05-02T08:30:07.140Z,13.3
2023-05-02T08:31:06.529Z,13.3
2023-05-02T08:32:06.893Z,13.4
2023-05-02T08:33:06.919Z,13.4
2023-05-02T08:35:06.645Z,13.4
2023-05-02T08:36:06.408Z,13.5
2023-05-02T08:37:06.792Z,13.5
2023-05-02T08:38:06.335Z,13.5
2023-05-02T08:39:06.305Z,12
2023-05-02T08:40:07.121Z,13.6
2023-05-02T08:41:06.692Z,13.7
2023-05-02T08:42:06.972Z,13.8
2023-05-02T08:43:06.262Z,13.8
2023-05-02T08:44:06.527Z,13.9
2023-05-02T08:45:06.722Z,13.9
2023-05-02T08:46:06.037Z,13.9
2023-05-02T08:47:05.641Z,13.9
2023-05-02T08:48:07.237Z,14
2023-05-02T08:51:06.543Z,14
2023-05-02T08:52:06.812Z,14.1
2023-05-02T08:53:06.085Z,14.2
2023-05-02T08:54:06.435Z,13
2023-05-02T08:55:07.278Z,13
2023-05-02T08:56:06.164Z,14.2
2023-05-02T08:57:06.080Z,14.3
2023-05-02T08:58:06.644Z,14.3
2023-05-02T08:59:06.801Z,14.3
2023-05-02T09:00:06.088Z,14.4
2023-05-02T09:01:06.357Z,14.4
2023-05-02T09:02:06.684Z,13
2023-05-02T09:03:06.413Z,14.5
2023-05-02T09:04:06.383Z,14.5
2023-05-02T09:05:07.091Z,14.6
2023-05-02T09:06:06.267Z,14.6
2023-05-02T09:07:06.071Z,13
2023-05-02T09:08:06.429Z,14.6
2023-05-02T09:09:06.797Z,14.6
2023-05-02T09:10:06.918Z,14.7
2023-05-02T09:11:05.966Z,14.7
2023-05-02T09:12:06.515Z,13
2023-05-02T09:13:06.118Z,14.7
2023-05-02T09:14:06.445Z,14.8
2023-05-02T09:15:06.747Z,14.8
2023-05-02T09:16:06.658Z,14.8
2023-05-02T09:17:06.037Z,14.8
2023-05-02T09:18:06.282Z,13
2023-05-02T09:19:06.466Z,14.8
2023-05-02T09:20:07.018Z,14.9
2023-05-02T09:21:06.930Z,13
2023-05-02T09:22:06.172Z,15
2023-05-02T09:23:06.232Z,15
2023-05-02T09:24:06.733Z,15
2023-05-02T09:25:06.834Z,15.1
2023-05-02T09:26:06.903Z,15.1
2023-05-02T09:27:07.341Z,15.2
2023-05-02T09:28:06.107Z,15.2
2023-05-02T09:29:06.379Z,15.2
2023-05-02T09:30:06.662Z,14
2023-05-02T09:31:06.134Z,15.3
2023-05-02T09:32:06.466Z,15.3
2023-05-02T09:33:06.624Z,15.4
2023-05-02T09:34:06.795Z,15.4
2023-05-02T09:35:06.130Z,15.4
2023-05-02T09:36:06.132Z,15.5
2023-05-02T09:37:06.384Z,15.6
2023-05-02T09:38:06.446Z,15.6
2023-05-02T09:39:06.734Z,15.7
2023-05-02T09:40:05.970Z,15.6
2023-05-02T09:41:06.631Z,15.8
2023-05-02T09:42:06.673Z,15.8
2023-05-02T09:43:06.076Z,15.8
2023-05-02T09:44:06.192Z,15.9
2023-05-02T09:45:06.652Z,15.9
2023-05-02T09:46:06.496Z,16
2023-05-02T09:47:06.536Z,16
2023-05-02T09:49:06.289Z,16.1
2023-05-02T09:50:06.494Z,16.2
2023-05-02T09:51:06.759Z,16.2
2023-05-02T09:52:06.010Z,16.3
2023-05-02T09:53:06.587Z,14
2023-05-02T09:54:06.849Z,16.3
2023-05-02T09:55:06.839Z,16.3
2023-05-02T09:56:06.920Z,16.4
2023-05-02T09:57:06.281Z,16.4
2023-05-02T09:59:06.765Z,16.4
2023-05-02T10:00:06.962Z,16.4
2023-05-02T10:01:06.249Z,16.4
2023-05-02T10:02:07.054Z,16.4
2023-05-02T10:03:06.948Z,16.4
2023-05-02T10:06:07.009Z,16.4
2023-05-02T10:08:06.367Z,16.4
2023-05-02T10:09:06.662Z,16.4
2023-05-02T10:10:06.983Z,16.4
2023-05-02T10:11:05.915Z,16.4
2023-05-02T10:12:05.870Z,16.4
2023-05-02T10:13:06.302Z,16.4
2023-05-02T10:14:06.780Z,16.4
2023-05-02T10:15:07.074Z,16.4
2023-05-02T10:16:06.243Z,16.5
2023-05-02T10:17:06.515Z,16.5
2023-05-02T10:18:06.817Z,16.5
2023-05-02T10:21:06.263Z,16.6
2023-05-02T10:22:06.600Z,16.6
2023-05-02T10:23:06.824Z,16.6
2023-05-02T10:24:06.259Z,16.6
2023-05-02T10:25:07.100Z,16.7
2023-05-02T10:26:06.675Z,16.7
2023-05-02T10:27:06.940Z,16.8
2023-05-02T10:28:06.175Z,16.8
2023-05-02T10:29:06.211Z,16.9
2023-05-02T10:30:06.848Z,16.9
2023-05-02T10:31:06.967Z,16.9
2023-05-02T10:32:06.465Z,16.9
2023-05-02T10:33:06.702Z,16.9
2023-05-02T10:36:06.050Z,16.9
2023-05-02T10:37:06.427Z,17
2023-05-02T10:38:06.815Z,17
2023-05-02T10:39:06.967Z,16.9
2023-05-02T10:40:06.591Z,16.9
2023-05-02T10:41:06.886Z,16.9
2023-05-02T10:42:07.022Z,16.8
2023-05-02T10:43:06.210Z,16.8
2023-05-02T10:44:06.366Z,16.8
2023-05-02T10:45:06.906Z,16.8
2023-05-02T10:46:06.728Z,16.8
2023-05-02T10:47:07.011Z,16.8
2023-05-02T10:51:05.363Z,16.6
2023-05-02T10:52:06.638Z,16.6
2023-05-02T10:53:06.964Z,16.6
2023-05-02T10:54:05.965Z,16.6
2023-05-02T10:55:06.538Z,16.6
2023-05-02T10:57:06.257Z,16.7
2023-05-02T10:58:06.551Z,16.7
2023-05-02T10:59:06.642Z,16.7
2023-05-02T11:00:06.878Z,16.8
2023-05-02T11:01:07.292Z,16.8
2023-05-02T11:02:09.122Z,15
2023-05-02T11:04:06.667Z,15
2023-05-02T11:05:07.611Z,16.8
2023-05-02T11:06:06.130Z,16.8
2023-05-02T11:07:06.260Z,16.8
2023-05-02T11:08:06.694Z,16.9
2023-05-02T11:09:06.137Z,15
2023-05-02T11:10:06.319Z,17
2023-05-02T11:11:06.771Z,17
2023-05-02T11:12:07.009Z,17
2023-05-02T11:13:06.174Z,17
2023-05-02T11:14:06.449Z,16.9
2023-05-02T11:15:07.261Z,16.8
2023-05-02T11:16:06.123Z,16.9
2023-05-02T11:17:06.740Z,16.9
2023-05-02T11:18:06.956Z,16.9
2023-05-02T11:20:05.954Z,16.8
2023-05-02T11:21:06.152Z,16.8
2023-05-02T11:22:06.319Z,16.8
2023-05-02T11:23:06.566Z,16.8
2023-05-02T11:24:05.963Z,16.8
2023-05-02T11:25:06.481Z,16.8
2023-05-02T11:26:06.093Z,16.8
2023-05-02T11:27:06.619Z,16.8
2023-05-02T11:28:06.860Z,16.8
2023-05-02T11:29:06.144Z,15
2023-05-02T11:30:06.470Z,16.9
2023-05-02T11:31:06.889Z,17
2023-05-02T11:32:06.146Z,17
2023-05-02T11:33:06.498Z,17.1
2023-05-02T11:34:06.660Z,17
2023-05-02T11:35:07.227Z,17.1
2023-05-02T11:36:06.231Z,17.1
2023-05-02T11:37:06.106Z,17.2
2023-05-02T11:38:06.893Z,17.2
2023-05-02T11:39:06.009Z,17.2
2023-05-02T11:40:06.028Z,17.3
2023-05-02T11:41:06.937Z,17.4
2023-05-02T11:42:06.381Z,17.4
2023-05-02T11:46:06.845Z,17.6
2023-05-02T11:47:05.816Z,15
2023-05-02T11:48:06.307Z,17.7
2023-05-02T11:49:09.829Z,17.7
2023-05-02T11:51:06.203Z,15
2023-05-02T11:52:06.286Z,17.6
2023-05-02T11:53:06.748Z,17.6
2023-05-02T11:54:06.860Z,17.6
2023-05-02T11:55:06.475Z,17.6
2023-05-02T11:56:06.488Z,17.6
2023-05-02T11:57:06.588Z,17.6
2023-05-02T11:58:06.787Z,17.8
2023-05-02T11:59:06.119Z,17.8
2023-05-02T12:00:06.241Z,17.8
2023-05-02T12:01:06.472Z,17.7
2023-05-02T12:02:06.485Z,17.7
2023-05-02T12:03:07.231Z,17.7
2023-05-02T12:04:06.039Z,17.6
2023-05-02T12:05:06.725Z,17.6
2023-05-02T12:06:06.225Z,17.6
2023-05-02T12:07:06.609Z,17.6
2023-05-02T12:08:06.651Z,15
2023-05-02T12:09:06.836Z,17.7
2023-05-02T12:10:06.086Z,17.7
2023-05-02T12:11:06.174Z,17.8
2023-05-02T12:12:06.585Z,17.9
2023-05-02T12:13:06.872Z,18
2023-05-02T12:14:06.981Z,18
2023-05-02T12:15:06.556Z,18
2023-05-02T12:16:06.915Z,18
2023-05-02T12:17:06.959Z,18.2
2023-05-02T12:18:06.401Z,18.2
2023-05-02T12:19:06.386Z,18.3
2023-05-02T12:20:06.550Z,18.3
2023-05-02T12:21:06.519Z,18.5
2023-05-02T12:22:06.721Z,18.5
2023-05-02T12:23:06.910Z,18.5
2023-05-02T12:24:06.277Z,18.7
2023-05-02T12:25:06.810Z,18.7
2023-05-02T12:28:06.176Z,18.8
2023-05-02T12:29:06.358Z,18.7
2023-05-02T12:30:06.797Z,18.8
2023-05-02T12:33:07.035Z,18.8
2023-05-02T12:36:06.244Z,17
2023-05-02T12:37:06.432Z,19
2023-05-02T12:38:06.532Z,19
2023-05-02T12:39:07.037Z,19
2023-05-02T12:40:06.773Z,19
2023-05-02T12:41:06.232Z,19
2023-05-02T12:42:06.440Z,19.1
2023-05-02T12:43:06.695Z,19.1
2023-05-02T12:44:06.909Z,17
2023-05-02T12:46:06.728Z,19.1
2023-05-02T12:47:06.161Z,19
2023-05-02T12:48:06.252Z,19
2023-05-02T12:49:06.439Z,19
2023-05-02T12:50:07.290Z,19
2023-05-02T12:51:06.594Z,19
2023-05-02T12:52:06.864Z,19.1
2023-05-02T12:53:06.106Z,19
2023-05-02T12:54:06.433Z,19
2023-05-02T12:55:06.673Z,18.9
2023-05-02T12:56:06.885Z,18.9
2023-05-02T12:57:06.263Z,18.8
2023-05-02T12:58:06.647Z,18.8
2023-05-02T12:59:06.893Z,18.9
2023-05-02T13:01:06.271Z,18.9
2023-05-02T13:02:06.621Z,18.9
2023-05-02T13:03:07.484Z,18.9
2023-05-02T13:04:06.391Z,18.9
2023-05-02T13:05:06.515Z,19
2023-05-02T13:06:06.343Z,19
2023-05-02T13:07:06.341Z,19.1
2023-05-02T13:08:06.507Z,19.1
2023-05-02T13:09:06.565Z,19.2
2023-05-02T13:10:07.235Z,19.2
2023-05-02T13:11:06.244Z,19.2
2023-05-02T13:12:06.358Z,19.2
2023-05-02T13:13:06.575Z,19.3
2023-05-02T13:14:06.934Z,19.4
2023-05-02T13:15:06.337Z,19.4
2023-05-02T13:16:06.631Z,17
2023-05-02T13:17:07.139Z,19.5
2023-05-02T13:18:07.476Z,19.6
2023-05-02T13:19:06.037Z,19.5
2023-05-02T13:20:07.659Z,19.6
2023-05-02T13:21:06.049Z,19.6
2023-05-02T13:22:06.074Z,19.6
2023-05-02T13:23:06.637Z,19.6
2023-05-02T13:24:06.682Z,19.6
2023-05-02T13:25:06.123Z,19.6
2023-05-02T13:26:06.158Z,19.7
2023-05-02T13:27:06.364Z,19.7
2023-05-02T13:28:06.676Z,19.6
2023-05-02T13:29:06.874Z,19.6
2023-05-02T13:30:10.352Z,19.6
2023-05-02T13:31:05.949Z,19.6
2023-05-02T13:32:06.383Z,19.5
2023-05-02T13:33:06.749Z,19.4
2023-05-02T13:34:06.976Z,19.4
2023-05-02T13:35:06.299Z,19.4
2023-05-02T13:36:06.205Z,19.2
2023-05-02T13:37:06.456Z,19.2
2023-05-02T13:38:06.592Z,19.2
2023-05-02T13:39:06.645Z,19.2
2023-05-02T13:40:06.365Z,17
2023-05-02T13:41:06.728Z,19.2
2023-05-02T13:42:08.296Z,19.1
2023-05-02T13:46:06.372Z,18.9
2023-05-02T13:47:06.836Z,19
2023-05-02T13:48:07.125Z,19
2023-05-02T13:49:06.068Z,19
2023-05-02T13:50:07.222Z,18.9
2023-05-02T13:51:06.602Z,18.9
2023-05-02T13:52:06.694Z,19
2023-05-02T13:53:06.927Z,18.9
2023-05-02T13:54:06.344Z,18.9
2023-05-02T13:55:06.567Z,18.9
2023-05-02T13:56:06.838Z,18.9
2023-05-02T13:57:06.188Z,18.9
2023-05-02T13:58:06.378Z,18.9
2023-05-02T13:59:10.883Z,18.8
2023-05-02T14:01:06.173Z,18.8
2023-05-02T14:02:06.494Z,18.8
2023-05-02T14:03:06.940Z,18.8
2023-05-02T14:04:06.776Z,18.8
2023-05-02T14:05:06.838Z,18.9
2023-05-02T14:07:06.370Z,18.9
2023-05-02T14:08:06.596Z,18.9
2023-05-02T14:09:07.003Z,19
2023-05-02T14:10:06.350Z,18.9
2023-05-02T14:11:09.315Z,18.9
2023-05-02T14:13:06.164Z,18.9
2023-05-02T14:14:06.327Z,18.9
2023-05-02T14:15:06.448Z,18.9
2023-05-02T14:16:05.897Z,18.8
2023-05-02T14:17:06.199Z,18.8
2023-05-02T14:18:06.565Z,18.8
2023-05-02T14:19:06.677Z,18.8
2023-05-02T14:20:07.491Z,18.8
2023-05-02T14:21:06.082Z,18.8
2023-05-02T14:22:06.510Z,18.8
2023-05-02T14:23:09.429Z,18.8
2023-05-02T14:24:05.926Z,18.9
2023-05-02T14:25:06.268Z,18.8
2023-05-02T14:26:06.969Z,18.8
2023-05-02T14:27:06.074Z,18.8
2023-05-02T14:28:06.500Z,18.8
2023-05-02T14:29:06.192Z,18.9
2023-05-02T14:30:07.552Z,18.9
2023-05-02T14:31:06.817Z,18.8
2023-05-02T14:32:07.147Z,18.8
2023-05-02T14:33:06.275Z,18.8
2023-05-02T14:34:09.002Z,18.8
2023-05-02T14:36:06.433Z,18.8
2023-05-02T14:37:06.584Z,17
2023-05-02T14:38:06.616Z,18.8
2023-05-02T14:39:06.729Z,18.7
2023-05-02T14:40:06.604Z,18.7
2023-05-02T14:42:06.760Z,18.6
2023-05-02T14:44:06.024Z,18.6
2023-05-02T14:45:06.301Z,18.5
2023-05-02T14:46:06.048Z,18.5
2023-05-02T14:47:06.424Z,18.4
2023-05-02T14:48:06.742Z,18.4
2023-05-02T14:49:06.918Z,18.4
2023-05-02T14:50:06.579Z,18.4
2023-05-02T14:52:06.756Z,18.2
2023-05-02T14:53:06.947Z,18.1
2023-05-02T14:54:06.134Z,18
2023-05-02T14:55:05.357Z,18
2023-05-02T14:56:06.785Z,18
2023-05-02T14:57:06.981Z,18.1
2023-05-02T14:58:09.745Z,18.1
2023-05-02T14:59:06.332Z,18
2023-05-02T15:00:07.443Z,18
2023-05-02T15:03:09.331Z,18.1
2023-05-02T15:04:09.744Z,18.1
2023-05-02T15:06:06.964Z,18
2023-05-02T15:07:07.421Z,18
2023-05-02T15:08:06.281Z,18
2023-05-02T15:09:06.707Z,17.9
2023-05-02T15:10:07.243Z,17.9
2023-05-02T15:11:06.119Z,17.9
2023-05-02T15:12:06.598Z,17.9
2023-05-02T15:13:06.928Z,17.8
2023-05-02T15:15:06.152Z,17.8
2023-05-02T15:16:06.399Z,17.8
2023-05-02T15:17:06.323Z,17.8
2023-05-02T15:18:06.816Z,17.7
2023-05-02T15:19:06.554Z,17.7
2023-05-02T15:20:06.634Z,17.8
2023-05-02T15:21:06.672Z,17.8
2023-05-02T15:22:06.883Z,17.8
2023-05-02T15:23:06.153Z,17.9
2023-05-02T15:24:06.300Z,17.9
2023-05-02T15:25:09.338Z,18
2023-05-02T15:30:06.782Z,18.2
2023-05-02T15:32:06.734Z,18.3
2023-05-02T15:33:07.095Z,18.3
2023-05-02T15:34:06.297Z,18.3
2023-05-02T15:35:06.353Z,18.2
2023-05-02T15:36:06.099Z,18.2
2023-05-02T15:37:06.324Z,18.2
2023-05-02T15:38:06.616Z,16
2023-05-02T15:39:07.041Z,18.2
2023-05-02T15:40:07.260Z,18.1
2023-05-02T15:43:06.098Z,18
2023-05-02T15:44:06.468Z,18
2023-05-02T15:47:05.845Z,16
2023-05-02T15:48:06.449Z,16
2023-05-02T15:49:06.373Z,18
2023-05-02T15:50:07.498Z,18